FR-0292 weather

CLOSED La Toussuire Airport
La Toussuire, Rhône Alpes, France

Public forecast

Using degrees Celsius for public forecast. Weather courtesy of forecast.io.

METAR (pilot weather report)

Closest report is Chambéry-Savoie Airport, 27.3 nm (50.6 km) NW. Retrieved 2019/09/19 16:30 UTC (0 seconds ago):

LFLB 191630Z AUTO 34010KT CAVOK 20/08 Q1020 NOSIG

TAF (pilot weather forecast)

Closest forecast is Chambéry-Savoie Airport, 27.3 nm (50.6 km) NW. Retrieved 2019/09/19 12:00 UTC (4 hours ago):

TAF LFLB 191100Z 1912/2012 36012KT CAVOK